sensor_id;sensor_type;location;lat;lon;timestamp;temperature;humidity
53695;DHT22;39588;51.124;7.190;2022-08-07T00:00:23;15.00;70.60
53695;DHT22;39588;51.124;7.190;2022-08-07T00:02:48;15.00;71.00
53695;DHT22;39588;51.124;7.190;2022-08-07T00:05:14;14.90;70.80
53695;DHT22;39588;51.124;7.190;2022-08-07T00:07:39;15.00;71.30
53695;DHT22;39588;51.124;7.190;2022-08-07T00:10:05;15.00;71.90
53695;DHT22;39588;51.124;7.190;2022-08-07T00:12:31;15.00;71.40
53695;DHT22;39588;51.124;7.190;2022-08-07T00:14:57;15.00;71.00
53695;DHT22;39588;51.124;7.190;2022-08-07T00:17:23;15.00;71.00
53695;DHT22;39588;51.124;7.190;2022-08-07T00:19:48;15.00;71.50
53695;DHT22;39588;51.124;7.190;2022-08-07T00:22:14;15.00;71.60
53695;DHT22;39588;51.124;7.190;2022-08-07T00:24:40;14.90;71.10
53695;DHT22;39588;51.124;7.190;2022-08-07T00:27:06;14.90;71.30
53695;DHT22;39588;51.124;7.190;2022-08-07T00:29:32;14.90;71.70
53695;DHT22;39588;51.124;7.190;2022-08-07T00:31:58;14.90;71.90
53695;DHT22;39588;51.124;7.190;2022-08-07T00:34:25;14.80;72.00
53695;DHT22;39588;51.124;7.190;2022-08-07T00:36:51;14.80;72.20
53695;DHT22;39588;51.124;7.190;2022-08-07T00:39:17;14.80;72.30
53695;DHT22;39588;51.124;7.190;2022-08-07T00:41:56;14.80;73.10
53695;DHT22;39588;51.124;7.190;2022-08-07T00:44:23;14.70;72.80
53695;DHT22;39588;51.124;7.190;2022-08-07T00:46:49;14.70;73.20
53695;DHT22;39588;51.124;7.190;2022-08-07T00:49:15;14.70;73.50
53695;DHT22;39588;51.124;7.190;2022-08-07T00:51:41;14.70;73.70
53695;DHT22;39588;51.124;7.190;2022-08-07T00:54:06;14.70;74.10
53695;DHT22;39588;51.124;7.190;2022-08-07T00:56:33;14.70;74.30
53695;DHT22;39588;51.124;7.190;2022-08-07T00:58:59;14.70;74.60
53695;DHT22;39588;51.124;7.190;2022-08-07T01:01:25;14.70;74.70
53695;DHT22;39588;51.124;7.190;2022-08-07T01:03:51;14.70;74.80
53695;DHT22;39588;51.124;7.190;2022-08-07T01:06:17;14.70;74.80
53695;DHT22;39588;51.124;7.190;2022-08-07T01:08:44;14.70;75.20
53695;DHT22;39588;51.124;7.190;2022-08-07T01:11:14;14.70;75.00
53695;DHT22;39588;51.124;7.190;2022-08-07T01:13:40;14.70;75.10
53695;DHT22;39588;51.124;7.190;2022-08-07T01:16:07;14.70;75.40
53695;DHT22;39588;51.124;7.190;2022-08-07T01:18:34;14.70;75.50
53695;DHT22;39588;51.124;7.190;2022-08-07T01:21:14;14.60;75.50
53695;DHT22;39588;51.124;7.190;2022-08-07T01:23:44;14.60;75.80
53695;DHT22;39588;51.124;7.190;2022-08-07T01:26:12;14.60;76.00
53695;DHT22;39588;51.124;7.190;2022-08-07T01:28:43;14.50;76.30
53695;DHT22;39588;51.124;7.190;2022-08-07T01:31:09;14.50;76.40
53695;DHT22;39588;51.124;7.190;2022-08-07T01:33:35;14.50;76.60
53695;DHT22;39588;51.124;7.190;2022-08-07T01:36:02;14.50;76.80
53695;DHT22;39588;51.124;7.190;2022-08-07T01:38:28;14.50;77.00
53695;DHT22;39588;51.124;7.190;2022-08-07T01:40:59;14.40;77.20
53695;DHT22;39588;51.124;7.190;2022-08-07T01:43:26;14.50;77.60
53695;DHT22;39588;51.124;7.190;2022-08-07T01:45:53;14.50;77.80
53695;DHT22;39588;51.124;7.190;2022-08-07T01:48:19;14.50;78.10
53695;DHT22;39588;51.124;7.190;2022-08-07T01:50:49;14.40;78.10
53695;DHT22;39588;51.124;7.190;2022-08-07T01:53:19;14.40;78.50
53695;DHT22;39588;51.124;7.190;2022-08-07T01:55:49;14.40;78.70
53695;DHT22;39588;51.124;7.190;2022-08-07T01:58:18;14.30;78.80
53695;DHT22;39588;51.124;7.190;2022-08-07T02:00:50;14.30;79.00
53695;DHT22;39588;51.124;7.190;2022-08-07T02:03:19;14.30;79.20
53695;DHT22;39588;51.124;7.190;2022-08-07T02:05:52;14.30;79.30
53695;DHT22;39588;51.124;7.190;2022-08-07T02:08:22;14.30;79.70
53695;DHT22;39588;51.124;7.190;2022-08-07T02:10:49;14.30;79.60
53695;DHT22;39588;51.124;7.190;2022-08-07T02:13:22;14.30;79.80
53695;DHT22;39588;51.124;7.190;2022-08-07T02:15:49;14.20;79.80
53695;DHT22;39588;51.124;7.190;2022-08-07T02:18:17;14.30;79.80
53695;DHT22;39588;51.124;7.190;2022-08-07T02:20:46;14.20;79.70
53695;DHT22;39588;51.124;7.190;2022-08-07T02:23:13;14.20;80.00
53695;DHT22;39588;51.124;7.190;2022-08-07T02:25:41;14.20;80.00
53695;DHT22;39588;51.124;7.190;2022-08-07T02:28:10;14.20;80.30
53695;DHT22;39588;51.124;7.190;2022-08-07T02:30:37;14.20;79.90
53695;DHT22;39588;51.124;7.190;2022-08-07T02:33:04;14.90;80.40
53695;DHT22;39588;51.124;7.190;2022-08-07T02:35:38;14.20;79.60
53695;DHT22;39588;51.124;7.190;2022-08-07T02:38:06;14.20;79.80
53695;DHT22;39588;51.124;7.190;2022-08-07T02:40:33;14.10;80.10
53695;DHT22;39588;51.124;7.190;2022-08-07T02:43:00;14.20;79.80
53695;DHT22;39588;51.124;7.190;2022-08-07T02:45:28;14.20;79.80
53695;DHT22;39588;51.124;7.190;2022-08-07T02:47:55;14.20;80.60
53695;DHT22;39588;51.124;7.190;2022-08-07T02:50:21;14.20;80.90
53695;DHT22;39588;51.124;7.190;2022-08-07T02:52:52;14.10;80.20
53695;DHT22;39588;51.124;7.190;2022-08-07T02:55:26;14.20;80.00
53695;DHT22;39588;51.124;7.190;2022-08-07T02:57:57;14.20;81.00
53695;DHT22;39588;51.124;7.190;2022-08-07T03:00:25;14.20;81.10
53695;DHT22;39588;51.124;7.190;2022-08-07T03:02:52;14.20;81.10
53695;DHT22;39588;51.124;7.190;2022-08-07T03:05:19;12.50;79.30
53695;DHT22;39588;51.124;7.190;2022-08-07T03:07:46;14.10;80.30
53695;DHT22;39588;51.124;7.190;2022-08-07T03:10:13;14.10;80.80
53695;DHT22;39588;51.124;7.190;2022-08-07T03:12:41;14.10;81.10
53695;DHT22;39588;51.124;7.190;2022-08-07T03:15:08;14.10;80.60
53695;DHT22;39588;51.124;7.190;2022-08-07T03:17:35;14.10;81.30
53695;DHT22;39588;51.124;7.190;2022-08-07T03:20:02;14.10;80.40
53695;DHT22;39588;51.124;7.190;2022-08-07T03:22:29;14.10;80.40
53695;DHT22;39588;51.124;7.190;2022-08-07T03:24:56;14.30;80.10
53695;DHT22;39588;51.124;7.190;2022-08-07T03:27:24;14.10;79.80
53695;DHT22;39588;51.124;7.190;2022-08-07T03:29:51;14.10;80.10
53695;DHT22;39588;51.124;7.190;2022-08-07T03:32:23;14.10;81.30
53695;DHT22;39588;51.124;7.190;2022-08-07T03:34:52;14.10;80.50
53695;DHT22;39588;51.124;7.190;2022-08-07T03:37:20;14.10;80.20
53695;DHT22;39588;51.124;7.190;2022-08-07T03:39:47;14.10;80.50
53695;DHT22;39588;51.124;7.190;2022-08-07T03:42:14;14.10;80.20
53695;DHT22;39588;51.124;7.190;2022-08-07T03:44:40;14.10;80.50
53695;DHT22;39588;51.124;7.190;2022-08-07T03:47:07;14.00;80.10
53695;DHT22;39588;51.124;7.190;2022-08-07T03:49:34;14.00;80.40
53695;DHT22;39588;51.124;7.190;2022-08-07T03:52:09;14.00;80.10
53695;DHT22;39588;51.124;7.190;2022-08-07T03:54:39;14.00;80.00
53695;DHT22;39588;51.124;7.190;2022-08-07T03:57:05;14.00;80.90
53695;DHT22;39588;51.124;7.190;2022-08-07T03:59:31;14.00;80.30
53695;DHT22;39588;51.124;7.190;2022-08-07T04:01:58;14.00;80.60
53695;DHT22;39588;51.124;7.190;2022-08-07T04:04:25;16.10;82.40
53695;DHT22;39588;51.124;7.190;2022-08-07T04:06:51;14.00;79.50
53695;DHT22;39588;51.124;7.190;2022-08-07T04:09:17;14.00;79.90
53695;DHT22;39588;51.124;7.190;2022-08-07T04:11:44;14.00;80.80
53695;DHT22;39588;51.124;7.190;2022-08-07T04:14:11;14.00;79.90
53695;DHT22;39588;51.124;7.190;2022-08-07T04:16:37;14.00;80.00
53695;DHT22;39588;51.124;7.190;2022-08-07T04:19:03;14.00;80.00
53695;DHT22;39588;51.124;7.190;2022-08-07T04:21:30;14.00;79.80
53695;DHT22;39588;51.124;7.190;2022-08-07T04:23:56;14.00;79.90
53695;DHT22;39588;51.124;7.190;2022-08-07T04:26:22;14.00;80.00
53695;DHT22;39588;51.124;7.190;2022-08-07T04:28:48;14.10;79.70
53695;DHT22;39588;51.124;7.190;2022-08-07T04:31:14;14.00;79.90
53695;DHT22;39588;51.124;7.190;2022-08-07T04:33:40;14.10;79.80
53695;DHT22;39588;51.124;7.190;2022-08-07T04:36:07;14.10;80.00
53695;DHT22;39588;51.124;7.190;2022-08-07T04:38:34;14.10;79.40
53695;DHT22;39588;51.124;7.190;2022-08-07T04:41:00;14.10;79.50
53695;DHT22;39588;51.124;7.190;2022-08-07T04:43:35;14.10;79.50
53695;DHT22;39588;51.124;7.190;2022-08-07T04:48:41;14.20;79.90
53695;DHT22;39588;51.124;7.190;2022-08-07T04:51:23;14.20;79.30
53695;DHT22;39588;51.124;7.190;2022-08-07T04:56:51;14.30;79.70
53695;DHT22;39588;51.124;7.190;2022-08-07T05:02:27;14.30;79.10
53695;DHT22;39588;51.124;7.190;2022-08-07T05:05:16;14.40;79.50
53695;DHT22;39588;51.124;7.190;2022-08-07T05:10:20;14.50;79.20
53695;DHT22;39588;51.124;7.190;2022-08-07T05:12:55;14.50;79.70
53695;DHT22;39588;51.124;7.190;2022-08-07T05:15:28;14.60;79.00
53695;DHT22;39588;51.124;7.190;2022-08-07T05:18:05;14.70;78.80
53695;DHT22;39588;51.124;7.190;2022-08-07T05:20:39;14.80;79.90
53695;DHT22;39588;51.124;7.190;2022-08-07T05:23:10;14.90;79.00
53695;DHT22;39588;51.124;7.190;2022-08-07T05:25:39;15.00;78.90
53695;DHT22;39588;51.124;7.190;2022-08-07T05:28:07;15.10;78.50
53695;DHT22;39588;51.124;7.190;2022-08-07T05:30:33;15.20;78.50
53695;DHT22;39588;51.124;7.190;2022-08-07T05:33:01;15.30;77.50
53695;DHT22;39588;51.124;7.190;2022-08-07T05:35:30;15.40;77.40
53695;DHT22;39588;51.124;7.190;2022-08-07T05:37:56;15.50;78.30
53695;DHT22;39588;51.124;7.190;2022-08-07T05:40:23;15.60;77.50
53695;DHT22;39588;51.124;7.190;2022-08-07T05:42:49;15.70;77.70
53695;DHT22;39588;51.124;7.190;2022-08-07T05:45:15;15.80;77.00
53695;DHT22;39588;51.124;7.190;2022-08-07T05:47:41;15.90;76.60
53695;DHT22;39588;51.124;7.190;2022-08-07T05:50:08;16.10;76.00
53695;DHT22;39588;51.124;7.190;2022-08-07T05:52:34;16.30;75.10
53695;DHT22;39588;51.124;7.190;2022-08-07T05:55:01;16.40;76.40
53695;DHT22;39588;51.124;7.190;2022-08-07T05:57:27;16.50;75.50
53695;DHT22;39588;51.124;7.190;2022-08-07T05:59:54;16.70;76.10
53695;DHT22;39588;51.124;7.190;2022-08-07T06:02:22;16.90;75.30
53695;DHT22;39588;51.124;7.190;2022-08-07T06:04:52;17.10;75.20
53695;DHT22;39588;51.124;7.190;2022-08-07T06:07:19;17.30;74.90
53695;DHT22;39588;51.124;7.190;2022-08-07T06:09:46;17.40;73.60
53695;DHT22;39588;51.124;7.190;2022-08-07T06:12:13;17.50;72.80
53695;DHT22;39588;51.124;7.190;2022-08-07T06:14:39;17.60;72.90
53695;DHT22;39588;51.124;7.190;2022-08-07T06:17:05;17.70;73.40
53695;DHT22;39588;51.124;7.190;2022-08-07T06:19:32;17.80;70.80
53695;DHT22;39588;51.124;7.190;2022-08-07T06:21:59;17.80;70.00
53695;DHT22;39588;51.124;7.190;2022-08-07T06:24:25;17.90;69.70
53695;DHT22;39588;51.124;7.190;2022-08-07T06:26:51;18.10;72.00
53695;DHT22;39588;51.124;7.190;2022-08-07T06:29:16;18.20;69.70
53695;DHT22;39588;51.124;7.190;2022-08-07T06:31:42;18.30;69.90
53695;DHT22;39588;51.124;7.190;2022-08-07T06:34:08;18.50;70.60
53695;DHT22;39588;51.124;7.190;2022-08-07T06:36:33;18.60;70.70
53695;DHT22;39588;51.124;7.190;2022-08-07T06:38:59;18.80;69.90
53695;DHT22;39588;51.124;7.190;2022-08-07T06:41:30;17.60;67.50
53695;DHT22;39588;51.124;7.190;2022-08-07T06:43:57;19.10;71.00
53695;DHT22;39588;51.124;7.190;2022-08-07T06:46:24;19.40;69.30
53695;DHT22;39588;51.124;7.190;2022-08-07T06:48:50;19.40;70.40
53695;DHT22;39588;51.124;7.190;2022-08-07T06:51:19;19.50;69.30
53695;DHT22;39588;51.124;7.190;2022-08-07T06:53:45;19.50;69.70
53695;DHT22;39588;51.124;7.190;2022-08-07T06:56:13;19.50;69.40
53695;DHT22;39588;51.124;7.190;2022-08-07T06:58:40;19.40;68.60
53695;DHT22;39588;51.124;7.190;2022-08-07T07:01:08;19.50;69.00
53695;DHT22;39588;51.124;7.190;2022-08-07T07:03:38;19.60;68.60
53695;DHT22;39588;51.124;7.190;2022-08-07T07:06:06;19.60;69.50
53695;DHT22;39588;51.124;7.190;2022-08-07T07:08:31;19.80;67.80
53695;DHT22;39588;51.124;7.190;2022-08-07T07:10:57;20.00;66.60
53695;DHT22;39588;51.124;7.190;2022-08-07T07:15:59;19.90;67.10
53695;DHT22;39588;51.124;7.190;2022-08-07T07:18:28;19.90;64.70
53695;DHT22;39588;51.124;7.190;2022-08-07T07:21:05;19.90;67.30
53695;DHT22;39588;51.124;7.190;2022-08-07T07:23:33;19.90;66.90
53695;DHT22;39588;51.124;7.190;2022-08-07T07:26:00;20.10;66.10
53695;DHT22;39588;51.124;7.190;2022-08-07T07:28:32;20.10;66.10
53695;DHT22;39588;51.124;7.190;2022-08-07T07:31:03;20.20;67.10
53695;DHT22;39588;51.124;7.190;2022-08-07T07:33:31;20.40;66.90
53695;DHT22;39588;51.124;7.190;2022-08-07T07:35:59;20.80;64.70
53695;DHT22;39588;51.124;7.190;2022-08-07T07:43:22;21.20;61.00
53695;DHT22;39588;51.124;7.190;2022-08-07T07:48:19;21.30;61.90
53695;DHT22;39588;51.124;7.190;2022-08-07T07:50:47;21.40;61.10
53695;DHT22;39588;51.124;7.190;2022-08-07T07:53:14;21.40;62.90
53695;DHT22;39588;51.124;7.190;2022-08-07T07:55:41;21.40;63.30
53695;DHT22;39588;51.124;7.190;2022-08-07T07:58:07;21.50;60.90
53695;DHT22;39588;51.124;7.190;2022-08-07T08:00:34;21.60;61.30
53695;DHT22;39588;51.124;7.190;2022-08-07T08:03:06;21.70;60.90
53695;DHT22;39588;51.124;7.190;2022-08-07T08:05:36;21.70;61.10
53695;DHT22;39588;51.124;7.190;2022-08-07T08:08:03;21.80;61.70
53695;DHT22;39588;51.124;7.190;2022-08-07T08:10:30;22.00;60.70
53695;DHT22;39588;51.124;7.190;2022-08-07T08:12:56;22.10;59.60
53695;DHT22;39588;51.124;7.190;2022-08-07T08:15:23;22.10;59.00
53695;DHT22;39588;51.124;7.190;2022-08-07T08:17:50;22.20;58.50
53695;DHT22;39588;51.124;7.190;2022-08-07T08:20:17;22.30;60.00
53695;DHT22;39588;51.124;7.190;2022-08-07T08:22:46;22.40;56.60
53695;DHT22;39588;51.124;7.190;2022-08-07T08:25:32;22.50;57.60
53695;DHT22;39588;51.124;7.190;2022-08-07T08:28:27;22.70;57.60
53695;DHT22;39588;51.124;7.190;2022-08-07T08:30:59;22.90;56.50
53695;DHT22;39588;51.124;7.190;2022-08-07T08:33:30;23.00;57.70
53695;DHT22;39588;51.124;7.190;2022-08-07T08:35:59;23.00;58.10
53695;DHT22;39588;51.124;7.190;2022-08-07T08:38:31;23.00;56.80
53695;DHT22;39588;51.124;7.190;2022-08-07T08:41:07;23.00;54.40
53695;DHT22;39588;51.124;7.190;2022-08-07T08:46:27;23.00;51.80
53695;DHT22;39588;51.124;7.190;2022-08-07T08:49:19;22.90;53.60
53695;DHT22;39588;51.124;7.190;2022-08-07T08:52:15;22.90;54.60
53695;DHT22;39588;51.124;7.190;2022-08-07T08:54:54;23.00;57.50
53695;DHT22;39588;51.124;7.190;2022-08-07T08:57:40;23.20;56.80
53695;DHT22;39588;51.124;7.190;2022-08-07T09:00:09;23.30;55.80
53695;DHT22;39588;51.124;7.190;2022-08-07T09:08:03;23.50;52.20
53695;DHT22;39588;51.124;7.190;2022-08-07T09:15:53;23.60;50.90
53695;DHT22;39588;51.124;7.190;2022-08-07T09:21:15;23.70;51.00
53695;DHT22;39588;51.124;7.190;2022-08-07T09:26:38;23.60;50.00
53695;DHT22;39588;51.124;7.190;2022-08-07T09:29:18;23.70;51.60
53695;DHT22;39588;51.124;7.190;2022-08-07T09:34:24;23.70;50.50
53695;DHT22;39588;51.124;7.190;2022-08-07T09:37:05;23.80;51.10
53695;DHT22;39588;51.124;7.190;2022-08-07T09:45:13;23.90;47.30
53695;DHT22;39588;51.124;7.190;2022-08-07T09:50:38;23.70;46.80
53695;DHT22;39588;51.124;7.190;2022-08-07T09:53:11;23.40;46.20
53695;DHT22;39588;51.124;7.190;2022-08-07T10:13:13;23.90;47.70
53695;DHT22;39588;51.124;7.190;2022-08-07T10:18:51;23.90;45.20
53695;DHT22;39588;51.124;7.190;2022-08-07T10:30:12;24.40;47.60
53695;DHT22;39588;51.124;7.190;2022-08-07T10:33:06;24.40;46.60
53695;DHT22;39588;51.124;7.190;2022-08-07T10:38:13;24.50;48.80
53695;DHT22;39588;51.124;7.190;2022-08-07T10:41:30;24.50;46.10
53695;DHT22;39588;51.124;7.190;2022-08-07T10:43:43;24.60;47.90
53695;DHT22;39588;51.124;7.190;2022-08-07T10:46:17;24.70;47.90
53695;DHT22;39588;51.124;7.190;2022-08-07T10:49:01;24.40;45.00
53695;DHT22;39588;51.124;7.190;2022-08-07T10:54:42;24.10;45.10
53695;DHT22;39588;51.124;7.190;2022-08-07T10:57:25;24.10;45.00
53695;DHT22;39588;51.124;7.190;2022-08-07T11:00:05;24.10;46.40
53695;DHT22;39588;51.124;7.190;2022-08-07T11:08:39;24.00;43.90
53695;DHT22;39588;51.124;7.190;2022-08-07T11:11:07;23.90;43.90
53695;DHT22;39588;51.124;7.190;2022-08-07T11:17:10;23.60;46.50
53695;DHT22;39588;51.124;7.190;2022-08-07T11:22:08;23.70;44.80
53695;DHT22;39588;51.124;7.190;2022-08-07T11:24:47;23.70;46.00
53695;DHT22;39588;51.124;7.190;2022-08-07T11:30:04;24.00;45.60
53695;DHT22;39588;51.124;7.190;2022-08-07T11:32:35;24.10;47.00
53695;DHT22;39588;51.124;7.190;2022-08-07T11:35:24;24.00;48.70
53695;DHT22;39588;51.124;7.190;2022-08-07T11:38:25;24.10;47.30
53695;DHT22;39588;51.124;7.190;2022-08-07T11:41:03;24.10;44.50
53695;DHT22;39588;51.124;7.190;2022-08-07T11:43:33;23.90;44.50
53695;DHT22;39588;51.124;7.190;2022-08-07T11:46:14;23.80;44.60
53695;DHT22;39588;51.124;7.190;2022-08-07T11:49:26;23.50;44.70
53695;DHT22;39588;51.124;7.190;2022-08-07T11:52:28;23.30;44.10
53695;DHT22;39588;51.124;7.190;2022-08-07T11:57:54;23.30;47.20
53695;DHT22;39588;51.124;7.190;2022-08-07T12:08:49;23.50;43.40
53695;DHT22;39588;51.124;7.190;2022-08-07T12:11:26;23.50;43.70
53695;DHT22;39588;51.124;7.190;2022-08-07T12:13:57;23.30;43.10
53695;DHT22;39588;51.124;7.190;2022-08-07T12:16:28;23.30;43.50
53695;DHT22;39588;51.124;7.190;2022-08-07T12:24:32;23.30;44.00
53695;DHT22;39588;51.124;7.190;2022-08-07T12:27:14;23.20;43.40
53695;DHT22;39588;51.124;7.190;2022-08-07T12:30:02;23.10;43.10
53695;DHT22;39588;51.124;7.190;2022-08-07T12:35:06;23.40;43.50
53695;DHT22;39588;51.124;7.190;2022-08-07T12:37:34;23.40;43.60
53695;DHT22;39588;51.124;7.190;2022-08-07T12:40:02;23.40;43.60
53695;DHT22;39588;51.124;7.190;2022-08-07T12:42:29;23.20;43.50
53695;DHT22;39588;51.124;7.190;2022-08-07T12:44:59;23.20;44.00
53695;DHT22;39588;51.124;7.190;2022-08-07T12:47:40;23.30;44.30
53695;DHT22;39588;51.124;7.190;2022-08-07T12:53:34;23.40;43.60
53695;DHT22;39588;51.124;7.190;2022-08-07T12:58:52;23.50;44.10
53695;DHT22;39588;51.124;7.190;2022-08-07T13:04:14;23.70;44.90
53695;DHT22;39588;51.124;7.190;2022-08-07T13:12:19;23.60;44.50
53695;DHT22;39588;51.124;7.190;2022-08-07T13:17:50;23.60;46.00
53695;DHT22;39588;51.124;7.190;2022-08-07T13:20:39;23.60;46.00
53695;DHT22;39588;51.124;7.190;2022-08-07T13:23:09;23.70;44.90
53695;DHT22;39588;51.124;7.190;2022-08-07T13:25:45;23.60;44.40
53695;DHT22;39588;51.124;7.190;2022-08-07T13:28:19;23.70;45.00
53695;DHT22;39588;51.124;7.190;2022-08-07T13:31:03;23.80;45.60
53695;DHT22;39588;51.124;7.190;2022-08-07T13:33:35;23.80;44.30
53695;DHT22;39588;51.124;7.190;2022-08-07T13:36:08;23.80;44.30
53695;DHT22;39588;51.124;7.190;2022-08-07T13:38:41;23.70;44.20
53695;DHT22;39588;51.124;7.190;2022-08-07T13:41:41;23.60;44.50
53695;DHT22;39588;51.124;7.190;2022-08-07T13:44:09;23.70;44.90
53695;DHT22;39588;51.124;7.190;2022-08-07T13:46:40;23.70;43.80
53695;DHT22;39588;51.124;7.190;2022-08-07T13:49:07;23.70;44.60
53695;DHT22;39588;51.124;7.190;2022-08-07T13:51:36;23.70;45.00
53695;DHT22;39588;51.124;7.190;2022-08-07T13:54:12;23.70;45.00
53695;DHT22;39588;51.124;7.190;2022-08-07T13:56:40;23.70;45.20
53695;DHT22;39588;51.124;7.190;2022-08-07T13:59:16;23.80;45.70
53695;DHT22;39588;51.124;7.190;2022-08-07T14:01:51;23.80;45.10
53695;DHT22;39588;51.124;7.190;2022-08-07T14:04:17;23.90;45.50
53695;DHT22;39588;51.124;7.190;2022-08-07T14:06:47;23.90;45.40
53695;DHT22;39588;51.124;7.190;2022-08-07T14:09:23;23.80;44.10
53695;DHT22;39588;51.124;7.190;2022-08-07T14:11:57;23.80;44.20
53695;DHT22;39588;51.124;7.190;2022-08-07T14:14:41;23.80;44.80
53695;DHT22;39588;51.124;7.190;2022-08-07T14:17:10;23.70;43.00
53695;DHT22;39588;51.124;7.190;2022-08-07T14:19:59;23.60;43.30
53695;DHT22;39588;51.124;7.190;2022-08-07T14:22:27;23.60;43.80
53695;DHT22;39588;51.124;7.190;2022-08-07T14:24:59;23.60;43.60
53695;DHT22;39588;51.124;7.190;2022-08-07T14:27:32;23.70;43.80
53695;DHT22;39588;51.124;7.190;2022-08-07T14:30:03;23.80;43.80
53695;DHT22;39588;51.124;7.190;2022-08-07T14:32:29;23.70;42.70
53695;DHT22;39588;51.124;7.190;2022-08-07T14:34:56;23.70;43.80
53695;DHT22;39588;51.124;7.190;2022-08-07T14:37:25;23.80;44.10
53695;DHT22;39588;51.124;7.190;2022-08-07T14:39:52;23.70;43.90
53695;DHT22;39588;51.124;7.190;2022-08-07T14:42:24;23.80;44.20
53695;DHT22;39588;51.124;7.190;2022-08-07T14:44:54;23.80;43.50
53695;DHT22;39588;51.124;7.190;2022-08-07T14:47:23;23.80;43.60
53695;DHT22;39588;51.124;7.190;2022-08-07T14:49:52;23.80;43.60
53695;DHT22;39588;51.124;7.190;2022-08-07T14:52:18;23.80;42.80
53695;DHT22;39588;51.124;7.190;2022-08-07T14:54:48;23.80;43.20
53695;DHT22;39588;51.124;7.190;2022-08-07T14:57:16;23.70;43.10
53695;DHT22;39588;51.124;7.190;2022-08-07T14:59:42;23.70;43.00
53695;DHT22;39588;51.124;7.190;2022-08-07T15:02:22;23.70;44.20
53695;DHT22;39588;51.124;7.190;2022-08-07T15:04:50;23.80;43.20
53695;DHT22;39588;51.124;7.190;2022-08-07T15:07:19;23.80;43.70
53695;DHT22;39588;51.124;7.190;2022-08-07T15:09:50;23.80;43.20
53695;DHT22;39588;51.124;7.190;2022-08-07T15:12:21;23.90;44.20
53695;DHT22;39588;51.124;7.190;2022-08-07T15:14:51;23.90;44.10
53695;DHT22;39588;51.124;7.190;2022-08-07T15:17:25;23.90;44.50
53695;DHT22;39588;51.124;7.190;2022-08-07T15:19:59;23.90;44.60
53695;DHT22;39588;51.124;7.190;2022-08-07T15:22:29;23.80;43.80
53695;DHT22;39588;51.124;7.190;2022-08-07T15:24:56;23.80;43.60
53695;DHT22;39588;51.124;7.190;2022-08-07T15:27:25;23.70;43.20
53695;DHT22;39588;51.124;7.190;2022-08-07T15:29:59;23.70;43.40
53695;DHT22;39588;51.124;7.190;2022-08-07T15:32:27;23.80;44.40
53695;DHT22;39588;51.124;7.190;2022-08-07T15:34:55;23.80;44.00
53695;DHT22;39588;51.124;7.190;2022-08-07T15:37:30;23.90;43.70
53695;DHT22;39588;51.124;7.190;2022-08-07T15:39:58;23.70;43.00
53695;DHT22;39588;51.124;7.190;2022-08-07T15:45:08;23.70;43.90
53695;DHT22;39588;51.124;7.190;2022-08-07T15:47:38;23.70;43.60
53695;DHT22;39588;51.124;7.190;2022-08-07T15:50:10;23.80;43.90
53695;DHT22;39588;51.124;7.190;2022-08-07T15:52:37;23.80;43.70
53695;DHT22;39588;51.124;7.190;2022-08-07T15:55:07;23.70;44.00
53695;DHT22;39588;51.124;7.190;2022-08-07T15:57:34;23.70;44.40
53695;DHT22;39588;51.124;7.190;2022-08-07T16:00:02;23.70;44.00
53695;DHT22;39588;51.124;7.190;2022-08-07T16:02:38;23.70;43.50
53695;DHT22;39588;51.124;7.190;2022-08-07T16:05:12;23.70;43.80
53695;DHT22;39588;51.124;7.190;2022-08-07T16:07:41;23.80;43.80
53695;DHT22;39588;51.124;7.190;2022-08-07T16:10:11;23.80;43.50
53695;DHT22;39588;51.124;7.190;2022-08-07T16:16:03;23.70;43.70
53695;DHT22;39588;51.124;7.190;2022-08-07T16:24:00;23.60;43.60
53695;DHT22;39588;51.124;7.190;2022-08-07T16:32:24;23.60;43.30
53695;DHT22;39588;51.124;7.190;2022-08-07T16:34:58;23.60;43.10
53695;DHT22;39588;51.124;7.190;2022-08-07T16:56:39;23.30;42.60
53695;DHT22;39588;51.124;7.190;2022-08-07T16:59:23;23.30;42.90
53695;DHT22;39588;51.124;7.190;2022-08-07T17:04:35;23.20;41.60
53695;DHT22;39588;51.124;7.190;2022-08-07T17:07:16;23.20;41.90
53695;DHT22;39588;51.124;7.190;2022-08-07T17:09:49;23.20;42.50
53695;DHT22;39588;51.124;7.190;2022-08-07T17:12:43;23.20;42.30
53695;DHT22;39588;51.124;7.190;2022-08-07T17:20:31;23.10;42.70
53695;DHT22;39588;51.124;7.190;2022-08-07T17:29:03;22.90;41.80
53695;DHT22;39588;51.124;7.190;2022-08-07T17:34:10;22.90;42.20
53695;DHT22;39588;51.124;7.190;2022-08-07T17:36:39;22.80;42.40
53695;DHT22;39588;51.124;7.190;2022-08-07T17:39:11;22.90;42.90
53695;DHT22;39588;51.124;7.190;2022-08-07T17:42:00;22.70;41.60
53695;DHT22;39588;51.124;7.190;2022-08-07T17:44:35;22.70;42.00
53695;DHT22;39588;51.124;7.190;2022-08-07T17:47:23;22.70;42.60
53695;DHT22;39588;51.124;7.190;2022-08-07T17:49:59;22.60;43.00
53695;DHT22;39588;51.124;7.190;2022-08-07T17:52:35;22.60;42.80
53695;DHT22;39588;51.124;7.190;2022-08-07T17:55:16;22.50;43.30
53695;DHT22;39588;51.124;7.190;2022-08-07T17:57:49;22.50;43.30
53695;DHT22;39588;51.124;7.190;2022-08-07T18:00:23;22.50;43.60
53695;DHT22;39588;51.124;7.190;2022-08-07T18:05:30;22.40;44.00
53695;DHT22;39588;51.124;7.190;2022-08-07T18:08:22;22.30;43.70
53695;DHT22;39588;51.124;7.190;2022-08-07T18:16:45;22.00;44.70
53695;DHT22;39588;51.124;7.190;2022-08-07T18:21:59;21.90;45.00
53695;DHT22;39588;51.124;7.190;2022-08-07T18:24:47;21.80;45.20
53695;DHT22;39588;51.124;7.190;2022-08-07T18:32:39;21.70;46.50
53695;DHT22;39588;51.124;7.190;2022-08-07T18:38:20;21.60;46.70
53695;DHT22;39588;51.124;7.190;2022-08-07T18:44:01;21.40;47.20
53695;DHT22;39588;51.124;7.190;2022-08-07T18:46:36;21.40;47.30
53695;DHT22;39588;51.124;7.190;2022-08-07T18:51:49;21.40;47.60
53695;DHT22;39588;51.124;7.190;2022-08-07T18:54:32;21.30;47.70
53695;DHT22;39588;51.124;7.190;2022-08-07T18:57:27;21.20;47.50
53695;DHT22;39588;51.124;7.190;2022-08-07T19:00:15;21.20;47.90
53695;DHT22;39588;51.124;7.190;2022-08-07T19:03:04;21.10;47.80
53695;DHT22;39588;51.124;7.190;2022-08-07T19:05:42;21.00;47.50
53695;DHT22;39588;51.124;7.190;2022-08-07T19:08:18;20.90;47.90
53695;DHT22;39588;51.124;7.190;2022-08-07T19:10:59;20.90;48.20
53695;DHT22;39588;51.124;7.190;2022-08-07T19:13:54;20.80;48.50
53695;DHT22;39588;51.124;7.190;2022-08-07T19:16:30;20.70;48.30
53695;DHT22;39588;51.124;7.190;2022-08-07T19:21:53;20.60;49.30
53695;DHT22;39588;51.124;7.190;2022-08-07T19:24:40;20.60;49.40
53695;DHT22;39588;51.124;7.190;2022-08-07T19:27:18;20.40;48.70
53695;DHT22;39588;51.124;7.190;2022-08-07T19:29:48;20.40;48.90
53695;DHT22;39588;51.124;7.190;2022-08-07T19:32:17;20.40;49.20
53695;DHT22;39588;51.124;7.190;2022-08-07T19:34:59;20.30;49.00